Terminal Aerodrome Forecast
Issued by NWS

Home | Current Version | Previous Version | Text Only | Print | Product List | Glossary On
Versions: 1 2 3 4 5 6 7 8 9 10 11 12
381
FTUS45 KRIW 250535
TAFLND
TAF
KLND 250535Z 2506/2606 VRB11G17KT P6SM VCTS SCT080CB BKN150
     FM250700 VRB06KT P6SM SCT090 BKN150
     FM251500 VRB06KT P6SM FEW070
     FM252000 34008KT P6SM SCT070 BKN090
     FM260200 VRB06KT P6SM BKN060=

USA.gov is the U.S. government's official web portal to all federal, state and local government web resources and services.